createdAt,value
2019-01-26T00:00:09.530Z,10.78
2019-01-26T00:02:39.394Z,8.58
2019-01-26T00:05:08.047Z,8.28
2019-01-26T00:07:37.062Z,7.95
2019-01-26T00:10:06.330Z,9.70
2019-01-26T00:12:34.459Z,7.00
2019-01-26T00:15:03.006Z,11.55
2019-01-26T00:17:32.263Z,7.55
2019-01-26T00:19:59.954Z,7.33
2019-01-26T00:22:27.958Z,7.42
2019-01-26T00:24:56.443Z,8.20
2019-01-26T00:27:24.557Z,8.98
2019-01-26T00:29:52.388Z,7.65
2019-01-26T00:32:20.088Z,7.40
2019-01-26T00:34:48.110Z,7.60
2019-01-26T00:37:16.002Z,9.10
2019-01-26T00:39:45.145Z,8.45
2019-01-26T00:42:13.892Z,7.90
2019-01-26T00:44:41.937Z,10.98
2019-01-26T00:47:09.990Z,10.38
2019-01-26T00:49:38.975Z,8.18
2019-01-26T00:52:06.835Z,11.28
2019-01-26T00:54:34.543Z,10.23
2019-01-26T00:57:02.697Z,8.80
2019-01-26T00:59:30.779Z,7.80
2019-01-26T01:01:59.110Z,8.95
2019-01-26T01:04:28.337Z,8.48
2019-01-26T01:06:56.019Z,10.20
2019-01-26T01:09:23.971Z,10.08
2019-01-26T01:11:51.834Z,9.55
2019-01-26T01:14:19.718Z,9.25
2019-01-26T01:16:47.550Z,9.18
2019-01-26T01:19:15.497Z,8.50
2019-01-26T01:21:43.311Z,13.40
2019-01-26T01:24:11.094Z,7.80
2019-01-26T01:26:39.030Z,8.35
2019-01-26T01:29:06.902Z,9.35
2019-01-26T01:31:34.775Z,8.78
2019-01-26T01:34:02.732Z,10.00
2019-01-26T01:36:31.753Z,8.63
2019-01-26T01:38:59.520Z,9.60
2019-01-26T01:41:31.552Z,12.93
2019-01-26T01:43:59.332Z,11.03
2019-01-26T01:46:27.311Z,11.35
2019-01-26T01:48:55.368Z,9.98
2019-01-26T01:51:25.074Z,9.23
2019-01-26T01:53:52.851Z,17.02
2019-01-26T01:56:21.242Z,11.20
2019-01-26T01:58:48.990Z,10.55
2019-01-26T02:04:04.394Z,13.08
2019-01-26T02:06:32.290Z,10.28
2019-01-26T02:09:00.182Z,16.20
2019-01-26T02:11:27.884Z,11.00
2019-01-26T02:14:00.404Z,14.38
2019-01-26T02:16:28.308Z,9.73
2019-01-26T02:18:57.349Z,12.70
2019-01-26T02:21:25.296Z,14.73
2019-01-26T02:23:53.109Z,11.00
2019-01-26T02:26:24.710Z,16.15
2019-01-26T02:28:52.582Z,16.30
2019-01-26T02:31:20.410Z,14.55
2019-01-26T02:33:50.337Z,14.63
2019-01-26T02:36:18.214Z,12.63
2019-01-26T02:38:46.009Z,17.45
2019-01-26T02:41:14.850Z,11.60
2019-01-26T02:43:43.099Z,12.95
2019-01-26T02:46:10.890Z,11.97
2019-01-26T02:48:38.695Z,11.30
2019-01-26T02:51:09.486Z,14.33
2019-01-26T02:53:37.450Z,13.08
2019-01-26T02:56:05.322Z,12.85
2019-01-26T02:58:33.017Z,13.08
2019-01-26T03:01:01.048Z,12.93
2019-01-26T03:03:28.822Z,13.38
2019-01-26T03:05:56.686Z,15.63
2019-01-26T03:08:24.371Z,12.37
2019-01-26T03:10:52.582Z,12.70
2019-01-26T03:13:20.635Z,17.73
2019-01-26T03:15:48.591Z,17.62
2019-01-26T03:18:16.351Z,14.10
2019-01-26T03:20:44.385Z,17.48
2019-01-26T03:23:12.519Z,16.20
2019-01-26T03:25:40.770Z,14.10
2019-01-26T03:28:14.377Z,12.45
2019-01-26T03:30:43.168Z,17.50
2019-01-26T03:33:10.873Z,15.50
2019-01-26T03:35:38.703Z,14.13
2019-01-26T03:38:06.670Z,16.02
2019-01-26T03:40:34.600Z,15.35
2019-01-26T03:43:02.420Z,19.37
2019-01-26T03:45:30.467Z,16.42
2019-01-26T03:47:58.598Z,18.12
2019-01-26T03:50:26.487Z,21.17
2019-01-26T03:52:54.414Z,17.25
2019-01-26T03:55:22.197Z,20.60
2019-01-26T03:57:50.982Z,22.30
2019-01-26T04:00:21.099Z,17.50
2019-01-26T04:02:48.909Z,19.42
2019-01-26T04:05:17.239Z,18.60
2019-01-26T04:07:45.701Z,15.88
2019-01-26T04:10:14.652Z,20.43
2019-01-26T04:12:42.743Z,20.65
2019-01-26T04:15:13.291Z,19.35
2019-01-26T04:17:41.348Z,21.62
2019-01-26T04:20:12.049Z,20.92
2019-01-26T04:22:41.063Z,27.67
2019-01-26T04:25:09.098Z,24.05
2019-01-26T04:27:37.157Z,22.37
2019-01-26T04:30:06.827Z,20.95
2019-01-26T04:32:34.568Z,26.93
2019-01-26T04:35:02.503Z,20.95
2019-01-26T04:37:30.377Z,23.40
2019-01-26T04:39:58.058Z,29.63
2019-01-26T04:42:26.007Z,22.93
2019-01-26T04:44:54.264Z,24.45
2019-01-26T04:47:30.554Z,21.35
2019-01-26T04:49:55.764Z,21.90
2019-01-26T04:52:23.556Z,20.08
2019-01-26T04:54:51.920Z,23.45
2019-01-26T04:57:21.014Z,30.23
2019-01-26T04:59:50.122Z,26.52
2019-01-26T05:02:17.884Z,28.70
2019-01-26T05:04:45.871Z,26.65
2019-01-26T05:07:13.679Z,27.98
2019-01-26T05:09:41.573Z,26.77
2019-01-26T05:12:10.580Z,31.57
2019-01-26T05:14:38.549Z,32.48
2019-01-26T05:17:10.550Z,25.12
2019-01-26T05:19:38.352Z,23.40
2019-01-26T05:22:07.450Z,27.98
2019-01-26T05:24:35.377Z,27.37
2019-01-26T05:27:03.193Z,30.17
2019-01-26T05:29:31.233Z,21.97
2019-01-26T05:31:59.264Z,27.13
2019-01-26T05:34:27.185Z,25.57
2019-01-26T05:36:55.056Z,26.40
2019-01-26T05:39:22.844Z,31.55
2019-01-26T05:41:50.813Z,31.10
2019-01-26T05:44:18.572Z,28.85
2019-01-26T05:46:46.563Z,28.70
2019-01-26T05:49:14.308Z,28.00
2019-01-26T05:51:53.906Z,30.55
2019-01-26T05:54:22.013Z,34.65
2019-01-26T05:56:49.909Z,28.12
2019-01-26T05:59:17.650Z,28.47
2019-01-26T06:01:46.024Z,35.03
2019-01-26T06:04:13.855Z,28.40
2019-01-26T06:06:45.043Z,28.38
2019-01-26T06:09:13.003Z,29.52
2019-01-26T06:11:42.851Z,30.17
2019-01-26T06:14:10.586Z,35.63
2019-01-26T06:16:38.313Z,35.80
2019-01-26T06:19:06.513Z,32.80
2019-01-26T06:21:34.581Z,29.87
2019-01-26T06:24:02.437Z,27.85
2019-01-26T06:26:34.068Z,32.73
2019-01-26T06:29:01.951Z,29.55
2019-01-26T06:31:29.833Z,35.13
2019-01-26T06:33:57.719Z,28.27
2019-01-26T06:36:25.478Z,32.78
2019-01-26T06:38:53.588Z,33.63
2019-01-26T06:41:21.233Z,33.42
2019-01-26T06:43:52.431Z,32.25
2019-01-26T06:46:20.139Z,29.95
2019-01-26T06:48:50.052Z,37.23
2019-01-26T06:51:18.904Z,31.35
2019-01-26T06:53:46.709Z,27.60
2019-01-26T06:56:14.627Z,33.35
2019-01-26T06:58:45.847Z,37.25
2019-01-26T07:01:17.801Z,36.65
2019-01-26T07:03:46.155Z,40.90
2019-01-26T07:06:18.138Z,45.78
2019-01-26T07:08:46.242Z,38.45
2019-01-26T07:11:14.127Z,38.75
2019-01-26T07:13:42.068Z,44.20
2019-01-26T07:16:09.935Z,39.65
2019-01-26T07:18:38.099Z,36.17
2019-01-26T07:21:06.115Z,38.30
2019-01-26T07:23:34.242Z,37.20
2019-01-26T07:26:01.951Z,37.50
2019-01-26T07:28:30.044Z,40.12
2019-01-26T07:30:57.884Z,37.23
2019-01-26T07:33:26.901Z,40.67
2019-01-26T07:35:54.936Z,40.45
2019-01-26T07:38:23.140Z,37.80
2019-01-26T07:40:51.001Z,42.17
2019-01-26T07:43:20.116Z,43.20
2019-01-26T07:45:47.922Z,42.10
2019-01-26T07:48:21.455Z,36.53
2019-01-26T07:50:49.389Z,35.40
2019-01-26T07:53:18.502Z,30.43
2019-01-26T07:55:46.407Z,36.33
2019-01-26T07:58:15.499Z,39.38
2019-01-26T08:00:43.246Z,38.98
2019-01-26T08:03:12.039Z,30.08
2019-01-26T08:05:44.563Z,42.43
2019-01-26T08:08:13.502Z,40.88
2019-01-26T08:10:43.336Z,37.40
2019-01-26T08:13:11.268Z,37.53
2019-01-26T08:15:39.211Z,36.45
2019-01-26T08:18:13.233Z,41.88
2019-01-26T08:20:42.294Z,39.38
2019-01-26T08:23:10.124Z,42.33
2019-01-26T08:25:39.113Z,41.08
2019-01-26T08:28:09.743Z,36.23
2019-01-26T08:30:37.708Z,42.93
2019-01-26T08:33:08.968Z,44.63
2019-01-26T08:35:36.890Z,31.42
2019-01-26T08:38:05.003Z,37.93
2019-01-26T08:40:33.712Z,39.80
2019-01-26T08:43:02.585Z,40.43
2019-01-26T08:45:30.670Z,42.58
2019-01-26T08:48:01.686Z,34.73
2019-01-26T08:50:29.787Z,39.40
2019-01-26T08:52:57.623Z,37.83
2019-01-26T08:55:25.412Z,38.30
2019-01-26T08:57:53.419Z,43.13
2019-01-26T09:00:23.403Z,38.23
2019-01-26T09:03:11.685Z,40.33
2019-01-26T09:05:51.593Z,35.98
2019-01-26T09:08:19.634Z,45.08
2019-01-26T09:10:47.433Z,43.90
2019-01-26T09:13:16.167Z,44.67
2019-01-26T09:15:44.139Z,41.75
2019-01-26T09:18:11.987Z,43.65
2019-01-26T09:20:39.891Z,41.88
2019-01-26T09:23:07.993Z,35.20
2019-01-26T09:25:35.982Z,30.10
2019-01-26T09:28:06.072Z,36.50
2019-01-26T09:30:34.062Z,37.93
2019-01-26T09:33:03.293Z,37.78
2019-01-26T09:35:32.537Z,40.48
2019-01-26T09:38:00.648Z,35.60
2019-01-26T09:40:28.598Z,41.40
2019-01-26T09:42:58.807Z,38.53
2019-01-26T09:45:29.531Z,35.75
2019-01-26T09:47:57.276Z,36.98
2019-01-26T09:50:25.229Z,32.78
2019-01-26T09:52:53.092Z,41.60
2019-01-26T09:55:22.227Z,35.15
2019-01-26T09:57:50.274Z,35.43
2019-01-26T10:00:21.020Z,28.57
2019-01-26T10:02:49.149Z,39.23
2019-01-26T10:05:20.619Z,32.93
2019-01-26T10:07:49.646Z,27.20
2019-01-26T10:10:18.000Z,33.95
2019-01-26T10:12:47.297Z,35.98
2019-01-26T10:15:15.758Z,36.83
2019-01-26T10:17:45.959Z,29.57
2019-01-26T10:20:18.578Z,38.48
2019-01-26T10:22:46.447Z,39.65
2019-01-26T10:25:16.839Z,32.45
2019-01-26T10:27:44.898Z,39.83
2019-01-26T10:30:25.912Z,37.03
2019-01-26T10:32:53.708Z,31.25
2019-01-26T10:35:33.533Z,34.83
2019-01-26T10:38:01.379Z,36.93
2019-01-26T10:40:54.932Z,38.58
2019-01-26T10:43:24.004Z,40.40
2019-01-26T10:45:51.921Z,34.10
2019-01-26T10:48:19.976Z,32.98
2019-01-26T10:50:47.673Z,31.50
2019-01-26T10:53:18.878Z,36.80
2019-01-26T10:55:46.859Z,30.57
2019-01-26T10:58:14.947Z,28.95
2019-01-26T11:00:42.895Z,29.40
2019-01-26T11:03:10.769Z,32.90
2019-01-26T11:05:41.666Z,31.50
2019-01-26T11:08:09.839Z,29.40
2019-01-26T11:10:37.779Z,36.42
2019-01-26T11:13:05.960Z,28.12
2019-01-26T11:15:34.015Z,30.75
2019-01-26T11:18:01.980Z,36.53
2019-01-26T11:20:29.943Z,29.98
2019-01-26T11:22:57.854Z,39.38
2019-01-26T11:25:26.909Z,32.93
2019-01-26T11:27:55.065Z,34.55
2019-01-26T11:30:27.218Z,31.40
2019-01-26T11:32:55.056Z,27.27
2019-01-26T11:35:26.206Z,32.48
2019-01-26T11:37:54.103Z,30.60
2019-01-26T11:40:22.229Z,32.17
2019-01-26T11:42:50.338Z,32.98
2019-01-26T11:45:28.563Z,33.40
2019-01-26T11:47:57.208Z,41.45
2019-01-26T11:50:33.659Z,31.12
2019-01-26T11:53:02.787Z,38.10
2019-01-26T11:55:44.093Z,34.80
2019-01-26T11:58:13.879Z,33.98
2019-01-26T12:01:04.640Z,36.45
2019-01-26T12:03:40.067Z,31.85
2019-01-26T12:06:11.621Z,36.65
2019-01-26T12:08:40.017Z,35.58
2019-01-26T12:11:08.158Z,38.78
2019-01-26T12:13:37.138Z,29.82
2019-01-26T12:16:05.027Z,35.73
2019-01-26T12:18:32.791Z,34.95
2019-01-26T12:21:02.770Z,34.48
2019-01-26T12:23:30.708Z,34.23
2019-01-26T12:26:00.168Z,27.70
2019-01-26T12:28:29.259Z,36.63
2019-01-26T12:31:04.471Z,34.05
2019-01-26T12:33:32.252Z,31.37
2019-01-26T12:36:00.068Z,41.35
2019-01-26T12:38:27.968Z,38.15
2019-01-26T12:40:58.850Z,34.80
2019-01-26T12:43:26.892Z,35.70
2019-01-26T12:45:55.782Z,33.98
2019-01-26T12:48:23.641Z,41.23
2019-01-26T12:50:51.358Z,32.50
2019-01-26T12:53:20.169Z,34.03
2019-01-26T12:55:50.650Z,35.08
2019-01-26T12:58:18.925Z,31.45
2019-01-26T13:00:48.965Z,37.60
2019-01-26T13:03:17.216Z,34.35
2019-01-26T13:05:44.920Z,43.33
2019-01-26T13:08:13.942Z,55.73
2019-01-26T13:10:45.849Z,40.58
2019-01-26T13:13:13.810Z,45.33
2019-01-26T13:15:43.791Z,37.67
2019-01-26T13:18:12.061Z,32.93
2019-01-26T13:20:40.166Z,37.78
2019-01-26T13:23:08.020Z,40.08
2019-01-26T13:25:35.813Z,36.08
2019-01-26T13:28:04.123Z,44.85
2019-01-26T13:30:31.955Z,41.65
2019-01-26T13:33:02.044Z,36.35
2019-01-26T13:35:29.808Z,31.97
2019-01-26T13:37:59.040Z,31.37
2019-01-26T13:40:26.903Z,32.58
2019-01-26T13:42:56.400Z,34.30
2019-01-26T13:45:24.472Z,33.80
2019-01-26T13:47:58.034Z,33.70
2019-01-26T13:50:25.933Z,29.77
2019-01-26T13:52:53.976Z,33.80
2019-01-26T13:55:21.779Z,33.55
2019-01-26T13:57:49.850Z,33.10
2019-01-26T14:00:20.910Z,33.10
2019-01-26T14:02:48.634Z,37.83
2019-01-26T14:05:16.876Z,33.35
2019-01-26T14:07:44.874Z,36.70
2019-01-26T14:10:13.809Z,32.75
2019-01-26T14:12:41.753Z,44.83
2019-01-26T14:15:11.181Z,36.10
2019-01-26T14:17:39.131Z,37.90
2019-01-26T14:20:09.894Z,34.60
2019-01-26T14:22:37.689Z,36.33
2019-01-26T14:25:07.454Z,33.58
2019-01-26T14:27:35.492Z,37.70
2019-01-26T14:30:08.523Z,33.15
2019-01-26T14:32:36.859Z,37.17
2019-01-26T14:35:05.280Z,42.33
2019-01-26T14:37:34.331Z,41.50
2019-01-26T14:40:02.199Z,40.67
2019-01-26T14:42:30.060Z,34.13
2019-01-26T14:44:57.848Z,41.88
2019-01-26T14:47:25.782Z,41.00
2019-01-26T14:49:58.623Z,38.95
2019-01-26T14:52:25.322Z,40.85
2019-01-26T14:54:54.702Z,36.88
2019-01-26T14:57:24.865Z,38.75
2019-01-26T14:59:54.943Z,36.20
2019-01-26T15:02:22.893Z,37.38
2019-01-26T15:04:52.218Z,41.60
2019-01-26T15:07:20.207Z,37.55
2019-01-26T15:09:52.588Z,39.45
2019-01-26T15:12:20.514Z,36.45
2019-01-26T15:14:48.598Z,38.42
2019-01-26T15:17:18.012Z,52.30
2019-01-26T15:19:46.216Z,33.78
2019-01-26T15:22:14.286Z,45.45
2019-01-26T15:24:46.344Z,41.73
2019-01-26T15:27:14.107Z,36.50
2019-01-26T15:29:42.523Z,37.08
2019-01-26T15:32:10.315Z,41.00
2019-01-26T15:34:38.197Z,47.38
2019-01-26T15:37:06.202Z,40.85
2019-01-26T15:39:33.918Z,41.23
2019-01-26T15:42:01.844Z,45.40
2019-01-26T15:44:29.971Z,48.10
2019-01-26T15:46:57.850Z,44.13
2019-01-26T15:49:25.847Z,48.20
2019-01-26T15:51:53.771Z,46.80
2019-01-26T15:54:23.249Z,41.50
2019-01-26T15:56:52.283Z,55.30
2019-01-26T15:59:20.103Z,55.15
2019-01-26T16:01:49.142Z,57.27
2019-01-26T16:04:17.190Z,55.75
2019-01-26T16:06:45.039Z,43.20
2019-01-26T16:09:14.168Z,56.53
2019-01-26T16:11:42.267Z,45.55
2019-01-26T16:14:10.199Z,38.78
2019-01-26T16:16:37.986Z,42.27
2019-01-26T16:19:05.956Z,46.13
2019-01-26T16:21:33.842Z,40.52
2019-01-26T16:24:03.577Z,57.10
2019-01-26T16:26:31.661Z,50.35
2019-01-26T16:28:59.450Z,58.60
2019-01-26T16:31:28.577Z,51.80
2019-01-26T16:33:58.493Z,43.17
2019-01-26T16:36:27.568Z,58.92
2019-01-26T16:38:58.847Z,64.03
2019-01-26T16:41:27.027Z,49.18
2019-01-26T16:43:54.872Z,47.58
2019-01-26T16:46:22.620Z,45.25
2019-01-26T16:48:51.374Z,56.08
2019-01-26T16:51:19.183Z,41.08
2019-01-26T16:53:47.948Z,52.23
2019-01-26T16:56:24.123Z,40.38
2019-01-26T16:58:51.866Z,46.05
2019-01-26T17:01:19.703Z,44.03
2019-01-26T17:03:47.543Z,42.20
2019-01-26T17:06:16.755Z,45.48
2019-01-26T17:08:44.556Z,49.50
2019-01-26T17:11:12.453Z,41.88
2019-01-26T17:13:41.520Z,43.58
2019-01-26T17:16:09.345Z,36.95
2019-01-26T17:18:37.884Z,43.10
2019-01-26T17:21:05.970Z,47.48
2019-01-26T17:23:33.844Z,43.90
2019-01-26T17:26:01.630Z,44.90
2019-01-26T17:28:32.790Z,44.20
2019-01-26T17:31:00.646Z,41.18
2019-01-26T17:33:28.553Z,36.25
2019-01-26T17:35:56.474Z,46.68
2019-01-26T17:38:24.613Z,39.35
2019-01-26T17:40:54.463Z,42.48
2019-01-26T17:43:22.510Z,44.30
2019-01-26T17:45:51.501Z,39.30
2019-01-26T17:48:19.417Z,35.35
2019-01-26T17:50:47.273Z,43.38
2019-01-26T17:53:15.253Z,46.42
2019-01-26T17:55:43.036Z,49.13
2019-01-26T17:58:10.977Z,42.08
2019-01-26T18:00:52.478Z,33.53
2019-01-26T18:03:20.546Z,37.98
2019-01-26T18:05:48.700Z,41.37
2019-01-26T18:08:16.684Z,41.88
2019-01-26T18:10:46.705Z,42.70
2019-01-26T18:13:14.427Z,47.55
2019-01-26T18:15:42.353Z,36.68
2019-01-26T18:18:10.292Z,41.23
2019-01-26T18:20:39.772Z,39.90
2019-01-26T18:23:07.637Z,43.08
2019-01-26T18:25:37.676Z,42.35
2019-01-26T18:28:05.895Z,45.43
2019-01-26T18:30:34.849Z,47.20
2019-01-26T18:33:02.643Z,44.50
2019-01-26T18:35:31.529Z,62.58
2019-01-26T18:38:00.638Z,50.90
2019-01-26T18:40:28.457Z,42.98
2019-01-26T18:42:56.357Z,46.70
2019-01-26T18:45:25.163Z,37.08
2019-01-26T18:47:53.267Z,45.20
2019-01-26T18:50:22.986Z,46.37
2019-01-26T18:52:51.954Z,44.60
2019-01-26T18:55:19.889Z,39.03
2019-01-26T18:57:49.945Z,39.65
2019-01-26T19:00:25.798Z,51.73
2019-01-26T19:02:58.760Z,48.40
2019-01-26T19:05:27.479Z,46.92
2019-01-26T19:07:55.220Z,47.78
2019-01-26T19:10:23.267Z,43.28
2019-01-26T19:12:51.208Z,39.08
2019-01-26T19:15:23.837Z,49.27
2019-01-26T19:17:51.776Z,38.90
2019-01-26T19:20:21.001Z,48.20
2019-01-26T19:22:55.008Z,43.15
2019-01-26T19:25:22.726Z,46.23
2019-01-26T19:27:52.610Z,43.00
2019-01-26T19:30:20.724Z,49.10
2019-01-26T19:32:48.925Z,36.48
2019-01-26T19:35:16.671Z,53.55
2019-01-26T19:37:45.741Z,45.10
2019-01-26T19:40:18.757Z,39.67
2019-01-26T19:42:47.707Z,42.62
2019-01-26T19:45:17.842Z,46.02
2019-01-26T19:47:48.223Z,43.45
2019-01-26T19:50:22.903Z,41.30
2019-01-26T19:52:56.748Z,38.45
2019-01-26T19:55:25.011Z,39.30
2019-01-26T19:57:52.965Z,45.40
2019-01-26T20:00:20.852Z,41.40
2019-01-26T20:02:50.086Z,38.75
2019-01-26T20:05:19.116Z,51.77
2019-01-26T20:07:47.531Z,40.48
2019-01-26T20:10:17.687Z,43.65
2019-01-26T20:12:48.277Z,38.28
2019-01-26T20:15:18.320Z,40.33
2019-01-26T20:17:46.363Z,36.73
2019-01-26T20:20:17.291Z,40.52
2019-01-26T20:22:45.522Z,35.60
2019-01-26T20:25:13.776Z,31.82
2019-01-26T20:27:41.987Z,34.25
2019-01-26T20:30:13.937Z,33.75
2019-01-26T20:32:44.892Z,38.63
2019-01-26T20:35:12.810Z,42.10
2019-01-26T20:37:41.652Z,40.70
2019-01-26T20:40:11.853Z,47.38
2019-01-26T20:42:40.604Z,49.70
2019-01-26T20:45:11.421Z,48.33
2019-01-26T20:47:39.318Z,38.88
2019-01-26T20:50:08.676Z,48.38
2019-01-26T20:52:36.725Z,37.40
2019-01-26T20:55:04.971Z,45.17
2019-01-26T20:57:32.808Z,41.05
2019-01-26T21:00:00.802Z,42.88
2019-01-26T21:02:28.696Z,40.28
2019-01-26T21:04:56.715Z,39.98
2019-01-26T21:07:25.281Z,36.90
2019-01-26T21:09:53.718Z,36.90
2019-01-26T21:12:23.712Z,41.23
2019-01-26T21:14:51.856Z,45.15
2019-01-26T21:17:19.808Z,40.43
2019-01-26T21:19:47.653Z,42.98
2019-01-26T21:22:15.560Z,40.50
2019-01-26T21:24:43.835Z,42.05
2019-01-26T21:27:11.709Z,39.38
2019-01-26T21:29:42.676Z,43.30
2019-01-26T21:32:10.725Z,50.67
2019-01-26T21:34:40.667Z,38.88
2019-01-26T21:37:11.113Z,44.80
2019-01-26T21:39:40.340Z,37.53
2019-01-26T21:42:08.256Z,48.78
2019-01-26T21:44:37.141Z,40.75
2019-01-26T21:47:05.314Z,49.95
2019-01-26T21:49:36.087Z,39.95
2019-01-26T21:52:04.067Z,44.80
2019-01-26T21:54:32.964Z,42.43
2019-01-26T21:57:00.834Z,42.67
2019-01-26T21:59:28.731Z,36.88
2019-01-26T22:02:00.361Z,43.25
2019-01-26T22:04:30.520Z,41.23
2019-01-26T22:06:59.272Z,42.95
2019-01-26T22:09:27.204Z,42.60
2019-01-26T22:11:55.010Z,35.25
2019-01-26T22:14:22.963Z,34.92
2019-01-26T22:16:50.702Z,42.48
2019-01-26T22:19:21.894Z,40.17
2019-01-26T22:21:48.629Z,43.75
2019-01-26T22:24:16.416Z,40.00
2019-01-26T22:26:44.248Z,48.50
2019-01-26T22:29:12.106Z,37.70
2019-01-26T22:31:39.998Z,41.88
2019-01-26T22:34:07.934Z,34.55
2019-01-26T22:36:35.633Z,31.48
2019-01-26T22:39:07.434Z,38.20
2019-01-26T22:41:35.746Z,39.88
2019-01-26T22:44:04.167Z,48.73
2019-01-26T22:46:34.109Z,32.80
2019-01-26T22:49:02.013Z,38.28
2019-01-26T22:51:29.916Z,46.98
2019-01-26T22:53:57.762Z,39.83
2019-01-26T22:56:26.902Z,34.08
2019-01-26T22:58:54.751Z,37.00
2019-01-26T23:01:35.369Z,35.38
2019-01-26T23:04:53.535Z,45.58
2019-01-26T23:07:33.094Z,35.08
2019-01-26T23:10:29.222Z,47.55
2019-01-26T23:13:10.613Z,37.85
2019-01-26T23:16:15.416Z,33.23
2019-01-26T23:18:53.592Z,41.77
2019-01-26T23:21:39.827Z,33.15
2019-01-26T23:25:00.710Z,35.52
2019-01-26T23:27:56.264Z,36.08
2019-01-26T23:31:04.749Z,42.35
2019-01-26T23:33:32.619Z,28.10
2019-01-26T23:36:06.548Z,46.75
2019-01-26T23:38:34.564Z,40.08
2019-01-26T23:41:02.373Z,43.48
2019-01-26T23:43:31.880Z,44.15
2019-01-26T23:46:01.918Z,32.13
2019-01-26T23:48:30.035Z,40.70
2019-01-26T23:50:57.839Z,42.85
2019-01-26T23:53:31.636Z,43.10
2019-01-26T23:55:59.707Z,38.15
2019-01-26T23:58:27.700Z,37.83
